sensor_id;sensor_type;location;lat;lon;timestamp;pressure;altitude;pressure_sealevel;temperature;humidity
82931;BME280;72705;53.346;10.248;2023-11-18T00:01:23;102482.22;;;3.53;93.67
82931;BME280;72705;53.346;10.248;2023-11-18T00:03:48;102474.38;;;3.50;93.90
82931;BME280;72705;53.346;10.248;2023-11-18T00:06:14;102485.69;;;3.55;94.36
82931;BME280;72705;53.346;10.248;2023-11-18T00:08:39;102481.16;;;3.57;93.62
82931;BME280;72705;53.346;10.248;2023-11-18T00:11:04;102486.47;;;3.57;93.85
82931;BME280;72705;53.346;10.248;2023-11-18T00:13:30;102481.28;;;3.54;94.41
82931;BME280;72705;53.346;10.248;2023-11-18T00:15:55;102483.94;;;3.54;94.15
82931;BME280;72705;53.346;10.248;2023-11-18T00:18:21;102466.88;;;3.58;93.55
82931;BME280;72705;53.346;10.248;2023-11-18T00:20:47;102469.69;;;3.55;94.13
82931;BME280;72705;53.346;10.248;2023-11-18T00:23:12;102460.69;;;3.57;94.70
82931;BME280;72705;53.346;10.248;2023-11-18T00:25:38;102456.47;;;3.52;94.42
82931;BME280;72705;53.346;10.248;2023-11-18T00:28:05;102466.88;;;3.58;94.38
82931;BME280;72705;53.346;10.248;2023-11-18T00:30:32;102456.22;;;3.58;94.34
82931;BME280;72705;53.346;10.248;2023-11-18T00:32:58;102466.28;;;3.70;93.62
82931;BME280;72705;53.346;10.248;2023-11-18T00:35:23;102470.00;;;3.66;94.20
82931;BME280;72705;53.346;10.248;2023-11-18T00:37:49;102459.34;;;3.66;94.29
82931;BME280;72705;53.346;10.248;2023-11-18T00:40:15;102452.94;;;3.70;93.33
82931;BME280;72705;53.346;10.248;2023-11-18T00:42:43;102471.91;;;3.64;94.34
82931;BME280;72705;53.346;10.248;2023-11-18T00:45:09;102465.03;;;3.58;94.70
82931;BME280;72705;53.346;10.248;2023-11-18T00:47:38;102472.22;;;3.58;94.22
82931;BME280;72705;53.346;10.248;2023-11-18T00:50:03;102478.00;;;3.66;94.11
82931;BME280;72705;53.346;10.248;2023-11-18T00:52:33;102480.06;;;3.61;94.60
82931;BME280;72705;53.346;10.248;2023-11-18T00:54:59;102487.19;;;3.60;94.58
82931;BME280;72705;53.346;10.248;2023-11-18T00:57:24;102482.16;;;3.54;94.64
82931;BME280;72705;53.346;10.248;2023-11-18T00:59:50;102478.47;;;3.57;94.69
82931;BME280;72705;53.346;10.248;2023-11-18T01:02:15;102482.88;;;3.58;95.35
82931;BME280;72705;53.346;10.248;2023-11-18T01:04:41;102478.47;;;3.57;95.27
82931;BME280;72705;53.346;10.248;2023-11-18T01:07:07;102474.31;;;3.51;95.04
82931;BME280;72705;53.346;10.248;2023-11-18T01:09:33;102474.16;;;3.54;94.98
82931;BME280;72705;53.346;10.248;2023-11-18T01:12:04;102473.50;;;3.49;95.14
82931;BME280;72705;53.346;10.248;2023-11-18T01:14:30;102492.69;;;3.57;94.75
82931;BME280;72705;53.346;10.248;2023-11-18T01:16:56;102491.53;;;3.80;94.01
82931;BME280;72705;53.346;10.248;2023-11-18T01:19:21;102492.53;;;3.78;93.38
82931;BME280;72705;53.346;10.248;2023-11-18T01:21:46;102489.47;;;3.68;93.93
82931;BME280;72705;53.346;10.248;2023-11-18T01:24:12;102487.91;;;3.64;94.11
82931;BME280;72705;53.346;10.248;2023-11-18T01:26:37;102493.38;;;3.61;94.78
82931;BME280;72705;53.346;10.248;2023-11-18T01:29:03;102498.72;;;3.61;94.99
82931;BME280;72705;53.346;10.248;2023-11-18T01:31:28;102501.47;;;3.59;95.16
82931;BME280;72705;53.346;10.248;2023-11-18T01:33:53;102503.34;;;3.57;95.57
82931;BME280;72705;53.346;10.248;2023-11-18T01:36:21;102497.06;;;3.58;95.15
82931;BME280;72705;53.346;10.248;2023-11-18T01:38:46;102502.50;;;3.57;95.35
82931;BME280;72705;53.346;10.248;2023-11-18T01:41:11;102502.50;;;3.57;95.65
82931;BME280;72705;53.346;10.248;2023-11-18T01:43:37;102497.22;;;3.55;95.18
82931;BME280;72705;53.346;10.248;2023-11-18T01:46:03;102492.97;;;3.51;95.42
82931;BME280;72705;53.346;10.248;2023-11-18T01:48:31;102505.28;;;3.54;95.59
82931;BME280;72705;53.346;10.248;2023-11-18T01:50:58;102494.06;;;3.47;95.60
82931;BME280;72705;53.346;10.248;2023-11-18T01:53:25;102505.28;;;3.54;95.60
82931;BME280;72705;53.346;10.248;2023-11-18T01:55:52;102511.41;;;3.56;95.52
82931;BME280;72705;53.346;10.248;2023-11-18T01:58:17;102508.59;;;3.59;95.08
82931;BME280;72705;53.346;10.248;2023-11-18T02:00:45;102500.19;;;3.49;95.63
82931;BME280;72705;53.346;10.248;2023-11-18T02:03:11;102511.72;;;3.50;95.57
82931;BME280;72705;53.346;10.248;2023-11-18T02:05:37;102513.00;;;3.41;95.58
82931;BME280;72705;53.346;10.248;2023-11-18T02:08:04;102501.19;;;3.47;95.14
82931;BME280;72705;53.346;10.248;2023-11-18T02:10:32;102509.97;;;3.49;94.79
82931;BME280;72705;53.346;10.248;2023-11-18T02:13:32;102508.19;;;3.31;94.87
82931;BME280;72705;53.346;10.248;2023-11-18T02:15:59;102521.66;;;3.28;95.03
82931;BME280;72705;53.346;10.248;2023-11-18T02:18:26;102513.31;;;3.16;95.51
82931;BME280;72705;53.346;10.248;2023-11-18T02:20:55;102517.19;;;3.09;96.35
82931;BME280;72705;53.346;10.248;2023-11-18T02:23:22;102524.13;;;3.13;96.22
82931;BME280;72705;53.346;10.248;2023-11-18T02:25:48;102516.25;;;3.10;96.21
82931;BME280;72705;53.346;10.248;2023-11-18T02:28:14;102511.44;;;3.18;95.84
82931;BME280;72705;53.346;10.248;2023-11-18T02:30:41;102523.97;;;3.16;95.47
82931;BME280;72705;53.346;10.248;2023-11-18T02:36:25;102527.56;;;3.15;95.80
82931;BME280;72705;53.346;10.248;2023-11-18T02:38:56;102536.44;;;3.16;95.81
82931;BME280;72705;53.346;10.248;2023-11-18T02:41:24;102533.91;;;3.13;95.86
82931;BME280;72705;53.346;10.248;2023-11-18T02:43:50;102532.91;;;3.15;95.14
82931;BME280;72705;53.346;10.248;2023-11-18T02:46:16;102529.88;;;3.23;94.83
82931;BME280;72705;53.346;10.248;2023-11-18T02:48:43;102536.38;;;3.17;95.35
82931;BME280;72705;53.346;10.248;2023-11-18T02:51:08;102542.50;;;3.19;95.18
82931;BME280;72705;53.346;10.248;2023-11-18T02:53:34;102544.66;;;3.30;94.47
82931;BME280;72705;53.346;10.248;2023-11-18T02:56:00;102536.22;;;3.20;94.70
82931;BME280;72705;53.346;10.248;2023-11-18T02:58:30;102546.47;;;3.30;94.54
82931;BME280;72705;53.346;10.248;2023-11-18T03:00:56;102536.38;;;3.17;95.26
82931;BME280;72705;53.346;10.248;2023-11-18T03:03:22;102538.91;;;3.20;94.83
82931;BME280;72705;53.346;10.248;2023-11-18T03:05:47;102545.56;;;3.10;95.87
82931;BME280;72705;53.346;10.248;2023-11-18T03:08:15;102542.91;;;3.10;95.75
82931;BME280;72705;53.346;10.248;2023-11-18T03:10:40;102550.16;;;3.27;94.87
82931;BME280;72705;53.346;10.248;2023-11-18T03:13:09;102546.91;;;3.20;95.37
82931;BME280;72705;53.346;10.248;2023-11-18T03:15:35;102554.97;;;3.19;95.10
82931;BME280;72705;53.346;10.248;2023-11-18T03:18:00;102551.28;;;3.21;95.21
82931;BME280;72705;53.346;10.248;2023-11-18T03:20:26;102554.50;;;3.28;94.85
82931;BME280;72705;53.346;10.248;2023-11-18T03:22:51;102546.03;;;3.20;95.34
82931;BME280;72705;53.346;10.248;2023-11-18T03:25:17;102541.56;;;3.20;95.25
82931;BME280;72705;53.346;10.248;2023-11-18T03:27:44;102532.47;;;3.24;94.61
82931;BME280;72705;53.346;10.248;2023-11-18T03:30:10;102537.81;;;3.24;94.34
82931;BME280;72705;53.346;10.248;2023-11-18T03:32:36;102538.63;;;3.27;93.98
82931;BME280;72705;53.346;10.248;2023-11-18T03:35:06;102534.22;;;3.25;93.97
82931;BME280;72705;53.346;10.248;2023-11-18T03:37:35;102532.59;;;3.21;94.34
82931;BME280;72705;53.346;10.248;2023-11-18T03:40:07;102531.91;;;3.18;94.50
82931;BME280;72705;53.346;10.248;2023-11-18T03:42:33;102526.78;;;3.13;94.50
82931;BME280;72705;53.346;10.248;2023-11-18T03:44:58;102533.06;;;3.12;94.36
82931;BME280;72705;53.346;10.248;2023-11-18T03:47:23;102525.84;;;3.14;94.42
82931;BME280;72705;53.346;10.248;2023-11-18T03:49:50;102532.91;;;3.15;94.18
82931;BME280;72705;53.346;10.248;2023-11-18T03:52:15;102533.41;;;3.05;94.36
82931;BME280;72705;53.346;10.248;2023-11-18T03:54:40;102543.56;;;3.15;93.97
82931;BME280;72705;53.346;10.248;2023-11-18T03:57:07;102550.03;;;3.10;94.30
82931;BME280;72705;53.346;10.248;2023-11-18T03:59:32;102556.38;;;3.07;94.55
82931;BME280;72705;53.346;10.248;2023-11-18T04:01:57;102552.22;;;3.02;94.63
82931;BME280;72705;53.346;10.248;2023-11-18T04:04:23;102555.22;;;2.94;95.00
82931;BME280;72705;53.346;10.248;2023-11-18T04:06:48;102555.06;;;2.97;94.94
82931;BME280;72705;53.346;10.248;2023-11-18T04:09:14;102555.22;;;2.94;94.91
82931;BME280;72705;53.346;10.248;2023-11-18T04:11:39;102561.75;;;2.87;96.01
82931;BME280;72705;53.346;10.248;2023-11-18T04:14:05;102548.16;;;2.93;95.45
82931;BME280;72705;53.346;10.248;2023-11-18T04:16:30;102550.09;;;2.90;94.99
82931;BME280;72705;53.346;10.248;2023-11-18T04:18:56;102559.09;;;2.87;95.34
82931;BME280;72705;53.346;10.248;2023-11-18T04:21:21;102551.75;;;2.92;95.03
82931;BME280;72705;53.346;10.248;2023-11-18T04:23:47;102540.22;;;2.92;95.08
82931;BME280;72705;53.346;10.248;2023-11-18T04:26:13;102551.53;;;2.97;94.82
82931;BME280;72705;53.346;10.248;2023-11-18T04:28:38;102547.78;;;2.82;95.53
82931;BME280;72705;53.346;10.248;2023-11-18T04:31:04;102553.41;;;2.95;94.84
82931;BME280;72705;53.346;10.248;2023-11-18T04:33:31;102554.69;;;2.86;95.32
82931;BME280;72705;53.346;10.248;2023-11-18T04:35:57;102547.88;;;2.79;95.83
82931;BME280;72705;53.346;10.248;2023-11-18T04:38:22;102544.03;;;2.66;96.20
82931;BME280;72705;53.346;10.248;2023-11-18T04:40:48;102548.44;;;2.67;96.07
82931;BME280;72705;53.346;10.248;2023-11-18T04:43:13;102539.53;;;2.68;95.61
82931;BME280;72705;53.346;10.248;2023-11-18T04:45:38;102543.06;;;2.68;96.06
82931;BME280;72705;53.346;10.248;2023-11-18T04:48:04;102537.41;;;2.56;96.58
82931;BME280;72705;53.346;10.248;2023-11-18T04:50:30;102538.59;;;2.49;96.91
82931;BME280;72705;53.346;10.248;2023-11-18T04:52:56;102543.00;;;2.50;96.46
82931;BME280;72705;53.346;10.248;2023-11-18T04:55:21;102542.38;;;2.43;96.93
82931;BME280;72705;53.346;10.248;2023-11-18T04:57:47;102541.66;;;2.39;96.76
82931;BME280;72705;53.346;10.248;2023-11-18T05:00:13;102544.75;;;2.29;97.12
82931;BME280;72705;53.346;10.248;2023-11-18T05:02:42;102550.56;;;2.18;97.86
82931;BME280;72705;53.346;10.248;2023-11-18T05:05:08;102551.75;;;2.11;97.62
82931;BME280;72705;53.346;10.248;2023-11-18T05:07:34;102553.97;;;2.00;98.32
82931;BME280;72705;53.346;10.248;2023-11-18T05:10:01;102547.31;;;1.90;98.58
82931;BME280;72705;53.346;10.248;2023-11-18T05:12:26;102544.91;;;1.84;99.06
82931;BME280;72705;53.346;10.248;2023-11-18T05:14:54;102539.03;;;1.76;99.34
82931;BME280;72705;53.346;10.248;2023-11-18T05:17:20;102536.56;;;1.71;99.59
82931;BME280;72705;53.346;10.248;2023-11-18T05:19:45;102541.25;;;1.65;99.97
82931;BME280;72705;53.346;10.248;2023-11-18T05:22:10;102520.34;;;1.55;99.78
82931;BME280;72705;53.346;10.248;2023-11-18T05:24:36;102515.34;;;1.48;100.00
82931;BME280;72705;53.346;10.248;2023-11-18T05:27:01;102513.78;;;1.42;100.00
82931;BME280;72705;53.346;10.248;2023-11-18T05:29:30;102513.34;;;1.31;100.00
82931;BME280;72705;53.346;10.248;2023-11-18T05:31:56;102503.63;;;1.30;100.00
82931;BME280;72705;53.346;10.248;2023-11-18T05:34:21;102514.59;;;1.23;100.00
82931;BME280;72705;53.346;10.248;2023-11-18T05:36:47;102500.22;;;1.05;100.00
82931;BME280;72705;53.346;10.248;2023-11-18T05:39:14;102513.50;;;1.05;100.00
82931;BME280;72705;53.346;10.248;2023-11-18T05:41:40;102517.53;;;0.92;100.00
82931;BME280;72705;53.346;10.248;2023-11-18T05:44:06;102508.75;;;0.90;100.00
82931;BME280;72705;53.346;10.248;2023-11-18T05:46:34;102515.09;;;0.86;100.00
82931;BME280;72705;53.346;10.248;2023-11-18T05:49:03;102517.69;;;0.87;100.00
82931;BME280;72705;53.346;10.248;2023-11-18T05:51:33;102512.31;;;0.89;100.00
82931;BME280;72705;53.346;10.248;2023-11-18T05:53:58;102514.38;;;0.80;100.00
82931;BME280;72705;53.346;10.248;2023-11-18T05:56:23;102509.06;;;0.80;100.00
82931;BME280;72705;53.346;10.248;2023-11-18T05:58:50;102520.66;;;0.79;100.00
82931;BME280;72705;53.346;10.248;2023-11-18T06:01:16;102515.44;;;0.76;100.00
82931;BME280;72705;53.346;10.248;2023-11-18T06:03:42;102513.69;;;0.75;100.00
82931;BME280;72705;53.346;10.248;2023-11-18T06:06:10;102505.88;;;0.72;100.00
82931;BME280;72705;53.346;10.248;2023-11-18T06:08:36;102504.06;;;0.73;100.00
82931;BME280;72705;53.346;10.248;2023-11-18T06:11:06;102506.59;;;0.76;100.00
82931;BME280;72705;53.346;10.248;2023-11-18T06:13:40;102502.63;;;0.64;100.00
82931;BME280;72705;53.346;10.248;2023-11-18T06:16:16;102508.03;;;0.61;100.00
82931;BME280;72705;53.346;10.248;2023-11-18T06:18:43;102514.59;;;0.51;100.00
82931;BME280;72705;53.346;10.248;2023-11-18T06:21:15;102509.50;;;0.45;100.00
82931;BME280;72705;53.346;10.248;2023-11-18T06:23:42;102502.81;;;0.35;100.00
82931;BME280;72705;53.346;10.248;2023-11-18T06:26:08;102516.38;;;0.26;100.00
82931;BME280;72705;53.346;10.248;2023-11-18T06:28:40;102519.34;;;0.17;100.00
82931;BME280;72705;53.346;10.248;2023-11-18T06:31:06;102513.44;;;0.09;100.00
82931;BME280;72705;53.346;10.248;2023-11-18T06:33:36;102506.72;;;-0.02;100.00
82931;BME280;72705;53.346;10.248;2023-11-18T06:36:03;102501.56;;;-0.06;100.00
82931;BME280;72705;53.346;10.248;2023-11-18T06:38:29;102506.09;;;-0.10;100.00
82931;BME280;72705;53.346;10.248;2023-11-18T06:40:55;102508.13;;;-0.18;100.00
82931;BME280;72705;53.346;10.248;2023-11-18T06:43:23;102509.22;;;-0.23;100.00
82931;BME280;72705;53.346;10.248;2023-11-18T06:45:49;102507.47;;;-0.24;100.00
82931;BME280;72705;53.346;10.248;2023-11-18T06:48:15;102504.06;;;-0.28;100.00
82931;BME280;72705;53.346;10.248;2023-11-18T06:50:40;102504.97;;;-0.29;100.00
82931;BME280;72705;53.346;10.248;2023-11-18T06:53:09;102511.19;;;-0.30;100.00
82931;BME280;72705;53.346;10.248;2023-11-18T06:55:36;102516.59;;;-0.33;100.00
82931;BME280;72705;53.346;10.248;2023-11-18T06:58:01;102520.25;;;-0.37;100.00
82931;BME280;72705;53.346;10.248;2023-11-18T07:00:27;102520.34;;;-0.40;100.00
82931;BME280;72705;53.346;10.248;2023-11-18T07:02:55;102518.34;;;-0.32;100.00
82931;BME280;72705;53.346;10.248;2023-11-18T07:05:22;102525.97;;;-0.23;100.00
82931;BME280;72705;53.346;10.248;2023-11-18T07:07:52;102534.75;;;-0.21;100.00
82931;BME280;72705;53.346;10.248;2023-11-18T07:10:17;102535.47;;;-0.16;100.00
82931;BME280;72705;53.346;10.248;2023-11-18T07:12:46;102547.66;;;-0.10;100.00
82931;BME280;72705;53.346;10.248;2023-11-18T07:15:13;102544.28;;;-0.15;100.00
82931;BME280;72705;53.346;10.248;2023-11-18T07:17:39;102558.03;;;-0.03;100.00
82931;BME280;72705;53.346;10.248;2023-11-18T07:20:04;102572.09;;;-0.01;100.00
82931;BME280;72705;53.346;10.248;2023-11-18T07:22:31;102570.22;;;0.03;100.00
82931;BME280;72705;53.346;10.248;2023-11-18T07:24:56;102578.19;;;0.02;100.00
82931;BME280;72705;53.346;10.248;2023-11-18T07:27:22;102579.13;;;0.00;100.00
82931;BME280;72705;53.346;10.248;2023-11-18T07:29:48;102578.81;;;0.10;100.00
82931;BME280;72705;53.346;10.248;2023-11-18T07:32:13;102561.19;;;0.09;100.00
82931;BME280;72705;53.346;10.248;2023-11-18T07:34:39;102568.75;;;0.19;100.00
82931;BME280;72705;53.346;10.248;2023-11-18T07:37:06;102552.56;;;0.28;100.00
82931;BME280;72705;53.346;10.248;2023-11-18T07:39:33;102556.72;;;0.35;100.00
82931;BME280;72705;53.346;10.248;2023-11-18T07:42:13;102538.13;;;0.37;100.00
82931;BME280;72705;53.346;10.248;2023-11-18T07:44:39;102542.63;;;0.33;100.00
82931;BME280;72705;53.346;10.248;2023-11-18T07:47:05;102558.31;;;0.41;100.00
82931;BME280;72705;53.346;10.248;2023-11-18T07:49:31;102567.50;;;0.56;100.00
82931;BME280;72705;53.346;10.248;2023-11-18T07:51:57;102572.44;;;0.66;100.00
82931;BME280;72705;53.346;10.248;2023-11-18T07:54:22;102575.84;;;0.70;100.00
82931;BME280;72705;53.346;10.248;2023-11-18T07:56:49;102577.38;;;0.77;100.00
82931;BME280;72705;53.346;10.248;2023-11-18T07:59:16;102563.28;;;0.75;100.00
82931;BME280;72705;53.346;10.248;2023-11-18T08:01:43;102569.22;;;0.81;100.00
82931;BME280;72705;53.346;10.248;2023-11-18T08:04:09;102569.00;;;0.88;100.00
82931;BME280;72705;53.346;10.248;2023-11-18T08:06:34;102580.19;;;0.97;100.00
82931;BME280;72705;53.346;10.248;2023-11-18T08:09:00;102571.16;;;1.01;100.00
82931;BME280;72705;53.346;10.248;2023-11-18T08:11:25;102562.91;;;1.09;100.00
82931;BME280;72705;53.346;10.248;2023-11-18T08:13:51;102566.16;;;1.17;100.00
82931;BME280;72705;53.346;10.248;2023-11-18T08:16:16;102564.97;;;1.24;100.00
82931;BME280;72705;53.346;10.248;2023-11-18T08:18:42;102561.06;;;1.34;100.00
82931;BME280;72705;53.346;10.248;2023-11-18T08:21:07;102568.66;;;1.43;99.90
82931;BME280;72705;53.346;10.248;2023-11-18T08:23:33;102554.16;;;1.52;99.55
82931;BME280;72705;53.346;10.248;2023-11-18T08:25:58;102555.53;;;1.62;99.39
82931;BME280;72705;53.346;10.248;2023-11-18T08:28:24;102553.25;;;1.75;100.00
82931;BME280;72705;53.346;10.248;2023-11-18T08:30:50;102548.59;;;1.80;99.99
82931;BME280;72705;53.346;10.248;2023-11-18T08:33:17;102564.88;;;1.94;99.95
82931;BME280;72705;53.346;10.248;2023-11-18T08:35:42;102550.66;;;1.95;99.27
82931;BME280;72705;53.346;10.248;2023-11-18T08:38:07;102553.88;;;2.03;98.90
82931;BME280;72705;53.346;10.248;2023-11-18T08:40:33;102552.59;;;2.12;98.65
82931;BME280;72705;53.346;10.248;2023-11-18T08:42:59;102535.59;;;2.16;98.76
82931;BME280;72705;53.346;10.248;2023-11-18T08:45:27;102539.78;;;2.21;98.46
82931;BME280;72705;53.346;10.248;2023-11-18T08:47:59;102529.81;;;2.26;98.98
82931;BME280;72705;53.346;10.248;2023-11-18T08:50:25;102522.75;;;2.25;98.11
82931;BME280;72705;53.346;10.248;2023-11-18T08:52:52;102516.88;;;2.17;98.38
82931;BME280;72705;53.346;10.248;2023-11-18T08:55:25;102517.28;;;2.08;98.45
82931;BME280;72705;53.346;10.248;2023-11-18T08:58:04;102518.31;;;2.04;99.03
82931;BME280;72705;53.346;10.248;2023-11-18T09:00:41;102527.00;;;2.09;98.46
82931;BME280;72705;53.346;10.248;2023-11-18T09:03:16;102527.16;;;2.26;98.11
82931;BME280;72705;53.346;10.248;2023-11-18T09:05:51;102528.69;;;2.32;97.67
82931;BME280;72705;53.346;10.248;2023-11-18T09:08:27;102529.13;;;2.41;97.80
82931;BME280;72705;53.346;10.248;2023-11-18T09:10:54;102522.56;;;2.50;97.51
82931;BME280;72705;53.346;10.248;2023-11-18T09:13:21;102521.91;;;2.65;96.40
82931;BME280;72705;53.346;10.248;2023-11-18T09:15:48;102509.09;;;2.73;96.55
82931;BME280;72705;53.346;10.248;2023-11-18T09:18:14;102509.00;;;2.95;96.34
82931;BME280;72705;53.346;10.248;2023-11-18T09:20:41;102515.94;;;2.98;95.88
82931;BME280;72705;53.346;10.248;2023-11-18T09:23:06;102508.84;;;2.98;95.75
82931;BME280;72705;53.346;10.248;2023-11-18T09:25:32;102514.03;;;3.01;95.28
82931;BME280;72705;53.346;10.248;2023-11-18T09:27:58;102507.84;;;3.01;95.58
82931;BME280;72705;53.346;10.248;2023-11-18T09:30:23;102502.94;;;3.10;95.37
82931;BME280;72705;53.346;10.248;2023-11-18T09:32:49;102515.03;;;3.17;95.56
82931;BME280;72705;53.346;10.248;2023-11-18T09:35:17;102496.59;;;3.32;94.73
82931;BME280;72705;53.346;10.248;2023-11-18T09:37:45;102483.91;;;3.37;93.94
82931;BME280;72705;53.346;10.248;2023-11-18T09:40:13;102504.94;;;3.43;94.18
82931;BME280;72705;53.346;10.248;2023-11-18T09:42:39;102501.81;;;3.52;94.07
82931;BME280;72705;53.346;10.248;2023-11-18T09:45:05;102501.06;;;3.50;94.23
82931;BME280;72705;53.346;10.248;2023-11-18T09:47:36;102507.97;;;3.54;93.95
82931;BME280;72705;53.346;10.248;2023-11-18T09:50:08;102501.56;;;3.58;94.28
82931;BME280;72705;53.346;10.248;2023-11-18T09:52:42;102496.56;;;3.69;93.62
82931;BME280;72705;53.346;10.248;2023-11-18T09:55:24;102506.75;;;3.78;93.13
82931;BME280;72705;53.346;10.248;2023-11-18T09:57:55;102508.25;;;3.84;92.48
82931;BME280;72705;53.346;10.248;2023-11-18T10:00:26;102508.38;;;3.99;92.25
82931;BME280;72705;53.346;10.248;2023-11-18T10:02:57;102511.41;;;4.09;91.84
82931;BME280;72705;53.346;10.248;2023-11-18T10:05:26;102506.00;;;4.11;91.89
82931;BME280;72705;53.346;10.248;2023-11-18T10:07:52;102510.09;;;4.18;91.89
82931;BME280;72705;53.346;10.248;2023-11-18T10:10:19;102502.41;;;4.29;90.14
82931;BME280;72705;53.346;10.248;2023-11-18T10:12:50;102507.09;;;4.41;90.23
82931;BME280;72705;53.346;10.248;2023-11-18T10:15:23;102486.50;;;4.60;89.89
82931;BME280;72705;53.346;10.248;2023-11-18T10:17:50;102488.59;;;4.71;88.72
82931;BME280;72705;53.346;10.248;2023-11-18T10:20:46;102474.16;;;4.75;89.15
82931;BME280;72705;53.346;10.248;2023-11-18T10:23:14;102483.53;;;4.82;88.07
82931;BME280;72705;53.346;10.248;2023-11-18T10:25:55;102482.50;;;4.84;88.76
82931;BME280;72705;53.346;10.248;2023-11-18T10:28:34;102481.72;;;4.82;87.96
82931;BME280;72705;53.346;10.248;2023-11-18T10:31:05;102485.03;;;4.87;87.80
82931;BME280;72705;53.346;10.248;2023-11-18T10:33:34;102470.53;;;4.92;86.77
82931;BME280;72705;53.346;10.248;2023-11-18T10:36:01;102455.72;;;5.02;86.99
82931;BME280;72705;53.346;10.248;2023-11-18T10:38:48;102452.97;;;5.03;86.96
82931;BME280;72705;53.346;10.248;2023-11-18T10:41:20;102452.69;;;5.08;86.64
82931;BME280;72705;53.346;10.248;2023-11-18T10:43:46;102445.53;;;5.08;86.23
82931;BME280;72705;53.346;10.248;2023-11-18T10:46:13;102441.66;;;5.14;85.33
82931;BME280;72705;53.346;10.248;2023-11-18T10:48:44;102435.22;;;5.18;86.63
82931;BME280;72705;53.346;10.248;2023-11-18T10:51:16;102439.53;;;5.36;84.75
82931;BME280;72705;53.346;10.248;2023-11-18T10:53:48;102439.31;;;5.39;84.02
82931;BME280;72705;53.346;10.248;2023-11-18T10:56:27;102438.19;;;5.43;83.60
82931;BME280;72705;53.346;10.248;2023-11-18T10:59:00;102439.56;;;5.50;82.13
82931;BME280;72705;53.346;10.248;2023-11-18T11:01:32;102436.66;;;5.55;82.22
82931;BME280;72705;53.346;10.248;2023-11-18T11:03:58;102429.28;;;5.58;81.43
82931;BME280;72705;53.346;10.248;2023-11-18T11:06:24;102417.06;;;5.54;79.74
82931;BME280;72705;53.346;10.248;2023-11-18T11:08:53;102413.91;;;5.62;80.21
82931;BME280;72705;53.346;10.248;2023-11-18T11:11:22;102408.56;;;5.62;81.15
82931;BME280;72705;53.346;10.248;2023-11-18T11:14:00;102407.53;;;5.64;80.59
82931;BME280;72705;53.346;10.248;2023-11-18T11:16:37;102404.91;;;5.79;79.86
82931;BME280;72705;53.346;10.248;2023-11-18T11:19:04;102399.34;;;5.82;80.09
82931;BME280;72705;53.346;10.248;2023-11-18T11:21:37;102387.69;;;5.83;79.67
82931;BME280;72705;53.346;10.248;2023-11-18T11:24:20;102389.88;;;5.92;79.67
82931;BME280;72705;53.346;10.248;2023-11-18T11:27:33;102372.75;;;5.94;78.52
82931;BME280;72705;53.346;10.248;2023-11-18T11:30:23;102373.16;;;6.02;78.53
82931;BME280;72705;53.346;10.248;2023-11-18T11:32:50;102376.00;;;5.99;78.61
82931;BME280;72705;53.346;10.248;2023-11-18T11:35:23;102373.81;;;5.92;78.53
82931;BME280;72705;53.346;10.248;2023-11-18T11:37:54;102375.72;;;5.90;78.33
82931;BME280;72705;53.346;10.248;2023-11-18T11:40:22;102360.94;;;5.83;78.31
82931;BME280;72705;53.346;10.248;2023-11-18T11:42:50;102374.41;;;5.81;78.36
82931;BME280;72705;53.346;10.248;2023-11-18T11:45:22;102371.84;;;5.80;79.32
82931;BME280;72705;53.346;10.248;2023-11-18T11:47:54;102364.56;;;5.82;79.49
82931;BME280;72705;53.346;10.248;2023-11-18T11:50:45;102352.56;;;5.89;78.96
82931;BME280;72705;53.346;10.248;2023-11-18T11:53:16;102350.28;;;5.97;78.60
82931;BME280;72705;53.346;10.248;2023-11-18T11:55:48;102340.81;;;5.91;78.88
82931;BME280;72705;53.346;10.248;2023-11-18T11:58:29;102335.25;;;5.94;78.76
82931;BME280;72705;53.346;10.248;2023-11-18T12:01:00;102343.00;;;5.99;79.62
82931;BME280;72705;53.346;10.248;2023-11-18T12:03:26;102338.22;;;5.90;78.93
82931;BME280;72705;53.346;10.248;2023-11-18T12:05:55;102339.25;;;5.87;79.08
82931;BME280;72705;53.346;10.248;2023-11-18T12:08:22;102328.22;;;5.78;79.78
82931;BME280;72705;53.346;10.248;2023-11-18T12:10:53;102318.75;;;5.72;79.00
82931;BME280;72705;53.346;10.248;2023-11-18T12:13:19;102318.06;;;5.68;79.23
82931;BME280;72705;53.346;10.248;2023-11-18T12:15:55;102326.94;;;5.69;80.00
82931;BME280;72705;53.346;10.248;2023-11-18T12:18:29;102328.19;;;5.63;79.47
82931;BME280;72705;53.346;10.248;2023-11-18T12:20:57;102331.81;;;5.62;80.14
82931;BME280;72705;53.346;10.248;2023-11-18T12:23:27;102332.97;;;5.58;81.43
82931;BME280;72705;53.346;10.248;2023-11-18T12:25:54;102333.91;;;5.57;80.49
82931;BME280;72705;53.346;10.248;2023-11-18T12:28:32;102340.22;;;5.56;80.24
82931;BME280;72705;53.346;10.248;2023-11-18T12:31:03;102332.19;;;5.56;80.63
82931;BME280;72705;53.346;10.248;2023-11-18T12:42:07;102308.72;;;5.61;81.20
82931;BME280;72705;53.346;10.248;2023-11-18T12:47:45;102306.94;;;5.46;81.92
82931;BME280;72705;53.346;10.248;2023-11-18T12:50:15;102310.91;;;5.39;82.34
82931;BME280;72705;53.346;10.248;2023-11-18T12:52:51;102316.28;;;5.39;82.82
82931;BME280;72705;53.346;10.248;2023-11-18T12:55:17;102313.69;;;5.38;82.82
82931;BME280;72705;53.346;10.248;2023-11-18T12:57:47;102321.97;;;5.33;83.04
82931;BME280;72705;53.346;10.248;2023-11-18T13:00:15;102315.69;;;5.34;82.69
82931;BME280;72705;53.346;10.248;2023-11-18T13:02:54;102318.63;;;5.29;83.31
82931;BME280;72705;53.346;10.248;2023-11-18T13:05:20;102309.06;;;5.25;83.03
82931;BME280;72705;53.346;10.248;2023-11-18T13:07:46;102309.91;;;5.26;83.53